createdAt,value
2019-01-21T00:01:19.805Z,26.43
2019-01-21T00:03:20.652Z,25.87
2019-01-21T00:05:21.488Z,26.80
2019-01-21T00:07:22.329Z,26.00
2019-01-21T00:09:23.180Z,26.17
2019-01-21T00:11:24.013Z,25.13
2019-01-21T00:13:24.858Z,25.70
2019-01-21T00:15:25.692Z,25.00
2019-01-21T00:17:27.096Z,24.93
2019-01-21T00:19:28.268Z,24.90
2019-01-21T00:21:29.385Z,25.57
2019-01-21T00:23:30.220Z,25.90
2019-01-21T00:25:31.072Z,25.30
2019-01-21T00:27:31.902Z,25.40
2019-01-21T00:29:32.742Z,26.30
2019-01-21T00:31:33.582Z,26.40
2019-01-21T00:33:34.441Z,25.47
2019-01-21T00:35:35.620Z,26.00
2019-01-21T00:37:36.453Z,26.47
2019-01-21T00:39:37.380Z,26.07
2019-01-21T00:41:38.257Z,25.63
2019-01-21T00:43:39.085Z,25.97
2019-01-21T00:45:40.200Z,25.63
2019-01-21T00:47:41.052Z,25.10
2019-01-21T00:49:41.898Z,25.93
2019-01-21T00:51:42.729Z,26.07
2019-01-21T00:53:43.585Z,26.47
2019-01-21T00:55:44.409Z,26.23
2019-01-21T00:57:45.240Z,25.07
2019-01-21T00:59:46.094Z,24.57
2019-01-21T01:01:46.929Z,24.17
2019-01-21T01:03:48.137Z,24.67
2019-01-21T01:05:49.280Z,24.57
2019-01-21T01:07:50.119Z,25.30
2019-01-21T01:09:50.960Z,24.37
2019-01-21T01:11:51.797Z,24.43
2019-01-21T01:13:52.988Z,23.83
2019-01-21T01:15:53.832Z,25.30
2019-01-21T01:17:54.693Z,24.87
2019-01-21T01:19:55.802Z,24.03
2019-01-21T01:21:56.648Z,24.13
2019-01-21T01:23:57.476Z,24.27
2019-01-21T01:25:58.788Z,25.17
2019-01-21T01:27:59.625Z,25.43
2019-01-21T01:30:00.481Z,25.20
2019-01-21T01:32:01.304Z,25.83
2019-01-21T01:34:02.137Z,24.83
2019-01-21T01:36:03.297Z,25.07
2019-01-21T01:38:04.125Z,25.37
2019-01-21T01:40:05.085Z,24.97
2019-01-21T01:42:05.957Z,25.80
2019-01-21T01:44:06.784Z,25.53
2019-01-21T01:46:07.623Z,26.63
2019-01-21T01:48:08.804Z,25.93
2019-01-21T01:50:09.628Z,25.23
2019-01-21T01:52:10.472Z,25.17
2019-01-21T01:54:11.608Z,25.00
2019-01-21T01:56:12.449Z,24.43
2019-01-21T01:58:13.304Z,25.13
2019-01-21T02:00:14.137Z,25.40
2019-01-21T02:02:14.993Z,25.37
2019-01-21T02:04:15.822Z,25.50
2019-01-21T02:06:17.040Z,24.40
2019-01-21T02:08:17.884Z,25.20
2019-01-21T02:10:19.001Z,24.50
2019-01-21T02:12:20.153Z,24.63
2019-01-21T02:14:20.984Z,25.07
2019-01-21T02:16:22.117Z,24.27
2019-01-21T02:18:22.946Z,25.40
2019-01-21T02:20:23.782Z,23.80
2019-01-21T02:22:24.621Z,23.47
2019-01-21T02:24:25.464Z,23.30
2019-01-21T02:26:26.564Z,23.50
2019-01-21T02:28:27.388Z,23.00
2019-01-21T02:30:28.541Z,23.50
2019-01-21T02:32:29.393Z,23.73
2019-01-21T02:34:30.240Z,22.80
2019-01-21T02:36:31.088Z,23.17
2019-01-21T02:38:31.929Z,23.10
2019-01-21T02:40:32.769Z,22.67
2019-01-21T02:42:33.625Z,23.40
2019-01-21T02:44:34.486Z,22.97
2019-01-21T02:46:35.434Z,23.90
2019-01-21T02:48:36.268Z,22.57
2019-01-21T02:50:37.121Z,22.67
2019-01-21T02:52:37.949Z,21.17
2019-01-21T02:54:38.800Z,21.63
2019-01-21T02:56:39.628Z,21.70
2019-01-21T02:58:40.452Z,21.33
2019-01-21T03:00:41.305Z,21.90
2019-01-21T03:02:42.133Z,21.63
2019-01-21T03:04:42.987Z,22.00
2019-01-21T03:06:43.832Z,20.87
2019-01-21T03:08:44.985Z,20.77
2019-01-21T03:10:46.132Z,20.87
2019-01-21T03:12:46.978Z,19.43
2019-01-21T03:14:47.820Z,20.27
2019-01-21T03:16:48.658Z,20.63
2019-01-21T03:18:49.522Z,20.30
2019-01-21T03:20:50.364Z,21.47
2019-01-21T03:22:51.532Z,20.57
2019-01-21T03:24:52.352Z,20.77
2019-01-21T03:26:53.205Z,20.83
2019-01-21T03:28:54.029Z,20.57
2019-01-21T03:30:55.082Z,20.33
2019-01-21T03:32:56.019Z,21.40
2019-01-21T03:34:57.246Z,20.57
2019-01-21T03:36:58.162Z,20.87
2019-01-21T03:38:59.113Z,20.43
2019-01-21T03:40:59.941Z,19.90
2019-01-21T03:43:01.117Z,20.67
2019-01-21T03:45:01.942Z,19.90
2019-01-21T03:47:03.086Z,20.40
2019-01-21T03:49:03.913Z,20.20
2019-01-21T03:51:04.765Z,20.90
2019-01-21T03:53:05.916Z,19.77
2019-01-21T03:55:06.753Z,20.10
2019-01-21T03:57:07.949Z,19.67
2019-01-21T03:59:08.803Z,19.67
2019-01-21T04:01:09.645Z,19.40
2019-01-21T04:03:10.757Z,20.63
2019-01-21T04:05:11.610Z,21.07
2019-01-21T04:07:12.438Z,21.40
2019-01-21T04:09:13.280Z,19.77
2019-01-21T04:11:14.538Z,20.00
2019-01-21T04:13:15.464Z,20.23
2019-01-21T04:15:16.292Z,20.17
2019-01-21T04:17:17.534Z,20.27
2019-01-21T04:19:18.353Z,20.20
2019-01-21T04:21:19.202Z,19.57
2019-01-21T04:23:20.028Z,20.40
2019-01-21T04:25:20.862Z,20.67
2019-01-21T04:27:21.725Z,20.30
2019-01-21T04:29:22.849Z,19.70
2019-01-21T04:31:23.687Z,20.63
2019-01-21T04:33:24.529Z,20.90
2019-01-21T04:35:25.362Z,21.00
2019-01-21T04:37:26.208Z,20.73
2019-01-21T04:39:27.064Z,20.53
2019-01-21T04:41:27.894Z,20.70
2019-01-21T04:43:28.749Z,21.30
2019-01-21T04:45:29.591Z,20.07
2019-01-21T04:47:31.153Z,21.77
2019-01-21T04:49:31.984Z,20.53
2019-01-21T04:51:32.818Z,19.83
2019-01-21T04:53:33.669Z,21.67
2019-01-21T04:55:34.772Z,20.17
2019-01-21T04:57:35.606Z,20.17
2019-01-21T04:59:36.473Z,20.43
2019-01-21T05:01:37.314Z,21.47
2019-01-21T05:03:38.153Z,20.57
2019-01-21T05:05:39.210Z,21.80
2019-01-21T05:07:40.036Z,21.10
2019-01-21T05:09:40.882Z,21.97
2019-01-21T05:11:42.061Z,20.17
2019-01-21T05:13:42.913Z,21.70
2019-01-21T05:15:43.740Z,20.97
2019-01-21T05:17:44.602Z,21.07
2019-01-21T05:19:45.445Z,19.87
2019-01-21T05:21:46.629Z,21.33
2019-01-21T05:23:47.780Z,21.07
2019-01-21T05:25:49.001Z,21.60
2019-01-21T05:27:49.857Z,22.07
2019-01-21T05:29:50.686Z,21.13
2019-01-21T05:31:52.116Z,22.17
2019-01-21T05:33:53.274Z,21.33
2019-01-21T05:35:54.104Z,21.37
2019-01-21T05:37:54.933Z,21.87
2019-01-21T05:39:56.089Z,21.20
2019-01-21T05:41:56.915Z,21.23
2019-01-21T05:43:57.736Z,21.33
2019-01-21T05:45:58.593Z,21.77
2019-01-21T05:47:59.414Z,21.80
2019-01-21T05:50:00.558Z,22.10
2019-01-21T05:52:01.408Z,22.63
2019-01-21T05:54:02.261Z,20.93
2019-01-21T05:56:03.080Z,22.27
2019-01-21T05:58:03.954Z,21.03
2019-01-21T06:00:04.933Z,22.63
2019-01-21T06:02:05.769Z,22.10
2019-01-21T06:04:06.620Z,22.97
2019-01-21T06:06:07.444Z,21.53
2019-01-21T06:08:08.289Z,22.63
2019-01-21T06:10:09.116Z,22.10
2019-01-21T06:12:09.952Z,23.40
2019-01-21T06:14:10.805Z,23.20
2019-01-21T06:16:11.649Z,21.70
2019-01-21T06:18:12.484Z,23.00
2019-01-21T06:20:13.349Z,22.93
2019-01-21T06:22:14.197Z,22.33
2019-01-21T06:24:15.016Z,23.53
2019-01-21T06:26:16.260Z,23.00
2019-01-21T06:28:17.097Z,22.70
2019-01-21T06:30:18.215Z,23.73
2019-01-21T06:32:19.060Z,21.37
2019-01-21T06:34:19.908Z,22.40
2019-01-21T06:36:20.737Z,22.87
2019-01-21T06:38:21.589Z,22.37
2019-01-21T06:40:22.520Z,23.37
2019-01-21T06:42:23.373Z,22.37
2019-01-21T06:44:24.204Z,23.57
2019-01-21T06:46:25.138Z,23.83
2019-01-21T06:48:26.003Z,23.23
2019-01-21T06:50:26.836Z,23.03
2019-01-21T06:52:27.697Z,22.33
2019-01-21T06:54:28.524Z,23.00
2019-01-21T06:56:29.609Z,22.70
2019-01-21T06:58:30.932Z,22.37
2019-01-21T07:00:31.762Z,22.80
2019-01-21T07:02:32.629Z,23.73
2019-01-21T07:04:33.465Z,24.80
2019-01-21T07:06:34.548Z,23.77
2019-01-21T07:08:35.383Z,23.43
2019-01-21T07:10:36.223Z,23.83
2019-01-21T07:12:37.057Z,23.70
2019-01-21T07:14:37.908Z,24.20
2019-01-21T07:16:38.752Z,23.23
2019-01-21T07:18:39.680Z,23.07
2019-01-21T07:20:40.517Z,23.50
2019-01-21T07:22:41.372Z,25.00
2019-01-21T07:24:42.560Z,24.50
2019-01-21T07:26:43.393Z,24.67
2019-01-21T07:28:44.240Z,23.30
2019-01-21T07:30:45.064Z,25.17
2019-01-21T07:32:45.925Z,23.93
2019-01-21T07:34:46.756Z,25.13
2019-01-21T07:36:47.600Z,25.67
2019-01-21T07:38:48.463Z,24.20
2019-01-21T07:40:49.309Z,25.73
2019-01-21T07:42:50.141Z,24.47
2019-01-21T07:44:51.325Z,24.37
2019-01-21T07:46:52.402Z,26.37
2019-01-21T07:48:53.265Z,26.83
2019-01-21T07:50:54.096Z,26.43
2019-01-21T07:52:54.949Z,25.53
2019-01-21T07:54:55.788Z,25.13
2019-01-21T07:56:56.616Z,24.57
2019-01-21T07:58:57.461Z,25.27
2019-01-21T08:00:58.289Z,25.93
2019-01-21T08:02:59.117Z,25.00
2019-01-21T08:04:59.953Z,26.20
2019-01-21T08:07:00.816Z,26.33
2019-01-21T08:09:02.033Z,27.50
2019-01-21T08:11:03.160Z,27.03
2019-01-21T08:13:04.312Z,28.17
2019-01-21T08:15:05.160Z,27.17
2019-01-21T08:17:06.276Z,26.63
2019-01-21T08:19:07.369Z,29.63
2019-01-21T08:21:08.196Z,29.60
2019-01-21T08:23:09.045Z,29.03
2019-01-21T08:25:09.893Z,27.97
2019-01-21T08:27:10.746Z,28.90
2019-01-21T08:29:11.592Z,29.20
2019-01-21T08:31:12.412Z,28.63
2019-01-21T08:33:13.239Z,29.00
2019-01-21T08:35:14.094Z,29.33
2019-01-21T08:37:14.945Z,28.80
2019-01-21T08:39:15.797Z,28.90
2019-01-21T08:41:16.884Z,29.33
2019-01-21T08:43:18.042Z,30.53
2019-01-21T08:45:18.869Z,29.00
2019-01-21T08:47:19.712Z,30.27
2019-01-21T08:49:20.552Z,29.10
2019-01-21T08:51:21.388Z,28.77
2019-01-21T08:53:22.244Z,30.40
2019-01-21T08:55:23.436Z,29.67
2019-01-21T08:57:24.265Z,31.03
2019-01-21T08:59:25.361Z,30.67
2019-01-21T09:01:26.544Z,30.77
2019-01-21T09:03:27.393Z,30.37
2019-01-21T09:05:28.242Z,32.00
2019-01-21T09:07:29.403Z,30.07
2019-01-21T09:09:30.238Z,30.90
2019-01-21T09:11:31.076Z,30.43
2019-01-21T09:13:32.276Z,30.97
2019-01-21T09:15:33.129Z,30.80
2019-01-21T09:17:33.956Z,30.53
2019-01-21T09:19:37.346Z,30.33
2019-01-21T09:21:37.532Z,31.97
2019-01-21T09:23:38.401Z,32.13
2019-01-21T09:25:39.232Z,31.53
2019-01-21T09:27:40.071Z,31.90
2019-01-21T09:29:40.925Z,31.87
2019-01-21T09:31:41.756Z,31.57
2019-01-21T09:33:42.585Z,32.87
2019-01-21T09:35:43.521Z,32.50
2019-01-21T09:37:44.364Z,32.20
2019-01-21T09:39:45.233Z,32.07
2019-01-21T09:41:46.080Z,32.30
2019-01-21T09:43:46.944Z,33.53
2019-01-21T09:45:47.785Z,32.73
2019-01-21T09:47:48.703Z,32.50
2019-01-21T09:49:49.552Z,32.50
2019-01-21T09:51:50.397Z,32.63
2019-01-21T09:53:51.248Z,32.30
2019-01-21T09:55:52.093Z,32.40
2019-01-21T09:57:52.948Z,31.27
2019-01-21T09:59:53.776Z,33.30
2019-01-21T10:01:54.600Z,33.77
2019-01-21T10:03:55.443Z,32.50
2019-01-21T10:05:56.274Z,33.60
2019-01-21T10:07:57.105Z,32.23
2019-01-21T10:09:57.984Z,33.33
2019-01-21T10:11:59.101Z,31.13
2019-01-21T10:13:59.953Z,33.90
2019-01-21T10:16:00.800Z,33.67
2019-01-21T10:18:01.632Z,33.37
2019-01-21T10:20:02.742Z,31.87
2019-01-21T10:22:03.593Z,32.90
2019-01-21T10:24:04.701Z,32.67
2019-01-21T10:26:05.548Z,34.73
2019-01-21T10:28:06.404Z,33.37
2019-01-21T10:30:07.228Z,34.00
2019-01-21T10:32:08.079Z,33.43
2019-01-21T10:34:09.330Z,33.47
2019-01-21T10:36:10.224Z,34.30
2019-01-21T10:38:11.080Z,33.93
2019-01-21T10:40:11.912Z,33.77
2019-01-21T10:42:13.130Z,35.40
2019-01-21T10:44:13.975Z,32.60
2019-01-21T10:46:14.808Z,33.83
2019-01-21T10:48:15.901Z,32.73
2019-01-21T10:50:16.733Z,32.87
2019-01-21T10:52:17.612Z,33.50
2019-01-21T10:54:18.470Z,33.20
2019-01-21T10:56:19.288Z,33.47
2019-01-21T10:58:20.134Z,33.67
2019-01-21T11:00:21.233Z,34.60
2019-01-21T11:02:22.085Z,35.00
2019-01-21T11:04:23.300Z,34.93
2019-01-21T11:06:24.152Z,34.67
2019-01-21T11:08:24.979Z,33.83
2019-01-21T11:10:25.841Z,34.50
2019-01-21T11:12:26.660Z,33.57
2019-01-21T11:14:27.772Z,33.23
2019-01-21T11:16:28.616Z,33.00
2019-01-21T11:18:29.749Z,32.47
2019-01-21T11:20:30.597Z,33.43
2019-01-21T11:22:31.424Z,34.00
2019-01-21T11:24:32.258Z,34.80
2019-01-21T11:26:33.404Z,34.03
2019-01-21T11:28:34.248Z,35.90
2019-01-21T11:30:35.086Z,31.87
2019-01-21T11:32:35.932Z,33.53
2019-01-21T11:34:37.136Z,33.70
2019-01-21T11:36:37.956Z,34.00
2019-01-21T11:38:39.118Z,33.67
2019-01-21T11:40:39.940Z,32.77
2019-01-21T11:42:40.777Z,32.67
2019-01-21T11:44:41.620Z,32.70
2019-01-21T11:46:42.452Z,32.70
2019-01-21T11:48:43.676Z,32.00
2019-01-21T11:50:44.840Z,33.00
2019-01-21T11:52:45.681Z,32.60
2019-01-21T11:54:46.809Z,33.63
2019-01-21T11:56:47.700Z,33.13
2019-01-21T11:58:48.584Z,33.60
2019-01-21T12:00:49.705Z,32.93
2019-01-21T12:02:50.554Z,33.53
2019-01-21T12:04:51.404Z,34.60
2019-01-21T12:06:52.237Z,34.87
2019-01-21T12:08:53.550Z,33.37
2019-01-21T12:10:54.402Z,33.27
2019-01-21T12:12:55.229Z,33.07
2019-01-21T12:14:56.076Z,32.20
2019-01-21T12:16:56.929Z,34.47
2019-01-21T12:18:58.039Z,33.10
2019-01-21T12:20:58.869Z,32.87
2019-01-21T12:22:59.997Z,33.47
2019-01-21T12:25:00.847Z,33.60
2019-01-21T12:27:01.668Z,33.33
2019-01-21T12:29:02.525Z,32.93
2019-01-21T12:31:03.359Z,33.43
2019-01-21T12:33:04.204Z,33.53
2019-01-21T12:35:05.060Z,32.93
2019-01-21T12:37:05.884Z,34.30
2019-01-21T12:39:06.821Z,33.83
2019-01-21T12:41:07.669Z,31.77
2019-01-21T12:43:08.506Z,32.80
2019-01-21T12:45:09.348Z,33.20
2019-01-21T12:47:10.209Z,33.10
2019-01-21T12:49:11.030Z,33.57
2019-01-21T12:51:11.882Z,34.77
2019-01-21T12:53:12.715Z,34.47
2019-01-21T12:55:13.561Z,32.57
2019-01-21T12:57:14.404Z,33.10
2019-01-21T12:59:16.109Z,34.03
2019-01-21T13:01:17.096Z,33.33
2019-01-21T13:03:18.189Z,33.60
2019-01-21T13:05:19.017Z,34.73
2019-01-21T13:07:19.866Z,35.73
2019-01-21T13:09:20.698Z,33.83
2019-01-21T13:11:21.516Z,35.80
2019-01-21T13:13:22.360Z,35.13
2019-01-21T13:15:23.201Z,35.57
2019-01-21T13:17:24.333Z,37.07
2019-01-21T13:19:25.695Z,34.57
2019-01-21T13:21:26.541Z,35.50
2019-01-21T13:23:27.753Z,36.20
2019-01-21T13:25:28.911Z,35.07
2019-01-21T13:27:29.751Z,36.40
2019-01-21T13:29:30.592Z,36.73
2019-01-21T13:31:31.452Z,35.80
2019-01-21T13:33:32.298Z,35.70
2019-01-21T13:35:33.136Z,36.53
2019-01-21T13:37:34.009Z,37.07
2019-01-21T13:39:34.873Z,36.83
2019-01-21T13:41:35.968Z,35.97
2019-01-21T13:43:37.106Z,35.50
2019-01-21T13:45:37.960Z,37.43
2019-01-21T13:47:38.796Z,35.80
2019-01-21T13:49:39.908Z,35.07
2019-01-21T13:51:40.765Z,34.20
2019-01-21T13:53:41.588Z,36.50
2019-01-21T13:55:42.441Z,33.93
2019-01-21T13:57:43.277Z,35.47
2019-01-21T13:59:44.113Z,35.90
2019-01-21T14:01:45.237Z,36.03
2019-01-21T14:03:46.072Z,35.33
2019-01-21T14:05:47.120Z,35.00
2019-01-21T14:07:47.973Z,35.20
2019-01-21T14:09:49.280Z,34.63
2019-01-21T14:11:50.133Z,35.37
2019-01-21T14:13:50.989Z,34.23
2019-01-21T14:15:51.833Z,36.67
2019-01-21T14:17:52.660Z,35.60
2019-01-21T14:19:53.513Z,34.33
2019-01-21T14:21:54.359Z,35.83
2019-01-21T14:23:55.512Z,36.33
2019-01-21T14:25:56.661Z,35.23
2019-01-21T14:27:57.524Z,35.57
2019-01-21T14:29:58.370Z,34.23
2019-01-21T14:31:59.468Z,36.23
2019-01-21T14:34:00.311Z,34.93
2019-01-21T14:36:01.454Z,35.37
2019-01-21T14:38:02.285Z,34.73
2019-01-21T14:40:03.109Z,34.03
2019-01-21T14:42:03.989Z,34.87
2019-01-21T14:44:04.832Z,33.63
2019-01-21T14:46:05.675Z,35.43
2019-01-21T14:48:06.539Z,35.00
2019-01-21T14:50:07.361Z,33.97
2019-01-21T14:52:08.531Z,37.43
2019-01-21T14:54:09.376Z,35.37
2019-01-21T14:56:10.208Z,35.17
2019-01-21T14:58:11.056Z,34.63
2019-01-21T15:00:11.915Z,35.73
2019-01-21T15:02:12.733Z,35.47
2019-01-21T15:04:13.595Z,34.80
2019-01-21T15:06:14.471Z,36.23
2019-01-21T15:08:15.380Z,34.60
2019-01-21T15:10:16.240Z,35.67
2019-01-21T15:12:17.179Z,33.37
2019-01-21T15:14:18.060Z,33.10
2019-01-21T15:16:19.020Z,33.10
2019-01-21T15:18:19.964Z,34.17
2019-01-21T15:20:21.093Z,32.30
2019-01-21T15:22:22.022Z,33.50
2019-01-21T15:24:23.036Z,33.07
2019-01-21T15:26:23.915Z,34.17
2019-01-21T15:28:24.888Z,34.20
2019-01-21T15:30:25.770Z,33.93
2019-01-21T15:32:27.114Z,35.50
2019-01-21T15:34:28.072Z,35.07
2019-01-21T15:36:29.096Z,33.37
2019-01-21T15:38:30.557Z,34.77
2019-01-21T15:40:31.508Z,35.30
2019-01-21T15:42:32.570Z,35.10
2019-01-21T15:44:33.538Z,34.90
2019-01-21T15:46:34.423Z,35.23
2019-01-21T15:48:35.264Z,34.30
2019-01-21T15:50:36.120Z,37.77
2019-01-21T15:52:36.953Z,34.67
2019-01-21T15:54:37.776Z,34.63
2019-01-21T15:56:39.178Z,34.80
2019-01-21T15:58:40.281Z,39.70
2019-01-21T16:00:41.109Z,33.50
2019-01-21T16:02:42.282Z,34.37
2019-01-21T16:04:43.124Z,34.40
2019-01-21T16:06:44.246Z,36.40
2019-01-21T16:08:45.093Z,33.10
2019-01-21T16:10:45.924Z,34.07
2019-01-21T16:12:46.765Z,31.93
2019-01-21T16:14:47.615Z,32.53
2019-01-21T16:16:48.716Z,35.80
2019-01-21T16:18:49.553Z,36.20
2019-01-21T16:20:50.441Z,37.50
2019-01-21T16:22:51.733Z,36.17
2019-01-21T16:24:52.885Z,30.00
2019-01-21T16:26:53.744Z,29.30
2019-01-21T16:28:54.563Z,30.10
2019-01-21T16:30:55.401Z,29.10
2019-01-21T16:32:56.244Z,30.13
2019-01-21T16:34:57.096Z,31.03
2019-01-21T16:36:57.959Z,30.00
2019-01-21T16:38:58.789Z,28.70
2019-01-21T16:40:59.617Z,30.00
2019-01-21T16:43:00.513Z,26.90
2019-01-21T16:45:01.642Z,22.97
2019-01-21T16:47:02.477Z,28.03
2019-01-21T16:49:03.297Z,26.50
2019-01-21T16:51:04.144Z,27.17
2019-01-21T16:53:04.972Z,26.53
2019-01-21T16:55:05.805Z,29.97
2019-01-21T16:57:06.937Z,30.43
2019-01-21T16:59:07.765Z,29.80
2019-01-21T17:01:08.608Z,29.93
2019-01-21T17:03:09.444Z,30.07
2019-01-21T17:05:10.385Z,28.73
2019-01-21T17:07:11.256Z,29.30
2019-01-21T17:09:12.097Z,28.80
2019-01-21T17:11:12.976Z,27.93
2019-01-21T17:13:13.832Z,28.67
2019-01-21T17:15:14.669Z,29.47
2019-01-21T17:17:15.593Z,28.97
2019-01-21T17:19:16.528Z,30.20
2019-01-21T17:21:17.366Z,27.27
2019-01-21T17:23:18.198Z,26.27
2019-01-21T17:25:19.024Z,27.80
2019-01-21T17:27:19.884Z,25.70
2019-01-21T17:29:20.747Z,26.97
2019-01-21T17:31:21.895Z,27.87
2019-01-21T17:33:22.729Z,27.27
2019-01-21T17:35:23.988Z,28.57
2019-01-21T17:37:24.830Z,27.83
2019-01-21T17:39:25.693Z,30.03
2019-01-21T17:41:26.551Z,30.93
2019-01-21T17:43:27.385Z,35.00
2019-01-21T17:45:28.221Z,35.13
2019-01-21T17:47:29.388Z,33.33
2019-01-21T17:49:30.237Z,30.80
2019-01-21T17:51:34.326Z,28.73
2019-01-21T17:53:34.104Z,28.37
2019-01-21T17:55:35.012Z,27.67
2019-01-21T17:57:35.957Z,26.70
2019-01-21T17:59:36.813Z,33.93
2019-01-21T18:01:39.378Z,35.33
2019-01-21T18:03:40.503Z,30.20
2019-01-21T18:05:41.337Z,30.63
2019-01-21T18:07:42.181Z,30.60
2019-01-21T18:09:43.024Z,28.40
2019-01-21T18:11:43.865Z,28.90
2019-01-21T18:13:45.022Z,27.70
2019-01-21T18:15:45.877Z,26.67
2019-01-21T18:17:46.700Z,25.67
2019-01-21T18:19:47.552Z,27.87
2019-01-21T18:21:48.384Z,27.60
2019-01-21T18:23:49.216Z,28.80
2019-01-21T18:25:50.092Z,26.70
2019-01-21T18:27:50.944Z,25.73
2019-01-21T18:29:51.772Z,25.57
2019-01-21T18:31:52.620Z,25.57
2019-01-21T18:33:53.457Z,25.17
2019-01-21T18:35:54.289Z,26.30
2019-01-21T18:37:55.148Z,25.57
2019-01-21T18:39:55.985Z,24.77
2019-01-21T18:41:56.822Z,25.50
2019-01-21T18:43:57.675Z,24.47
2019-01-21T18:45:58.761Z,27.07
2019-01-21T18:47:59.641Z,25.77
2019-01-21T18:50:00.497Z,26.07
2019-01-21T18:52:01.402Z,25.53
2019-01-21T18:54:02.250Z,25.83
2019-01-21T18:56:03.361Z,25.77
2019-01-21T18:58:04.199Z,25.93
2019-01-21T19:00:05.060Z,25.17
2019-01-21T19:02:05.969Z,23.40
2019-01-21T19:04:07.029Z,23.67
2019-01-21T19:06:08.244Z,24.27
2019-01-21T19:08:09.092Z,25.60
2019-01-21T19:10:09.924Z,24.73
2019-01-21T19:12:10.782Z,25.33
2019-01-21T19:14:11.625Z,25.53
2019-01-21T19:16:12.484Z,25.33
2019-01-21T19:18:13.632Z,24.67
2019-01-21T19:20:14.459Z,24.70
2019-01-21T19:22:15.304Z,25.07
2019-01-21T19:24:16.554Z,24.70
2019-01-21T19:26:17.400Z,26.93
2019-01-21T19:28:18.252Z,26.13
2019-01-21T19:30:19.080Z,24.43
2019-01-21T19:32:19.933Z,24.80
2019-01-21T19:34:20.772Z,24.87
2019-01-21T19:36:21.588Z,25.43
2019-01-21T19:38:22.432Z,26.37
2019-01-21T19:40:23.268Z,26.03
2019-01-21T19:42:24.116Z,25.10
2019-01-21T19:44:24.953Z,26.17
2019-01-21T19:46:25.820Z,27.33
2019-01-21T19:48:26.677Z,25.80
2019-01-21T19:50:27.519Z,24.97
2019-01-21T19:52:28.628Z,25.87
2019-01-21T19:54:29.472Z,24.67
2019-01-21T19:56:30.332Z,25.73
2019-01-21T19:58:31.160Z,25.70
2019-01-21T20:00:32.012Z,26.43
2019-01-21T20:02:32.912Z,25.27
2019-01-21T20:04:33.877Z,25.57
2019-01-21T20:06:34.724Z,25.47
2019-01-21T20:08:35.829Z,25.00
2019-01-21T20:10:36.672Z,25.90
2019-01-21T20:12:37.516Z,26.97
2019-01-21T20:14:38.417Z,25.53
2019-01-21T20:16:39.294Z,26.77
2019-01-21T20:18:40.137Z,27.07
2019-01-21T20:20:40.977Z,25.93
2019-01-21T20:22:41.829Z,26.33
2019-01-21T20:24:42.665Z,25.13
2019-01-21T20:26:43.492Z,26.10
2019-01-21T20:28:44.344Z,26.23
2019-01-21T20:30:45.168Z,26.50
2019-01-21T20:32:46.012Z,25.60
2019-01-21T20:34:46.874Z,25.20
2019-01-21T20:36:47.785Z,26.83
2019-01-21T20:38:48.629Z,25.07
2019-01-21T20:40:49.484Z,26.47
2019-01-21T20:42:50.330Z,25.57
2019-01-21T20:44:51.169Z,26.37
2019-01-21T20:46:52.072Z,25.93
2019-01-21T20:48:52.921Z,27.33
2019-01-21T20:50:53.812Z,26.50
2019-01-21T20:52:54.704Z,25.80
2019-01-21T20:54:55.592Z,25.30
2019-01-21T20:56:56.557Z,25.63
2019-01-21T20:58:57.781Z,26.83
2019-01-21T21:00:58.632Z,26.60
2019-01-21T21:02:59.514Z,27.10
2019-01-21T21:05:00.500Z,26.83
2019-01-21T21:07:01.417Z,27.03
2019-01-21T21:09:03.656Z,28.33
2019-01-21T21:11:04.500Z,29.00
2019-01-21T21:13:05.616Z,28.30
2019-01-21T21:15:06.485Z,27.70
2019-01-21T21:17:07.340Z,28.30
2019-01-21T21:19:08.174Z,27.47
2019-01-21T21:21:09.034Z,28.83
2019-01-21T21:23:09.922Z,27.77
2019-01-21T21:25:10.769Z,27.83
2019-01-21T21:27:11.630Z,28.70
2019-01-21T21:29:12.872Z,26.97
2019-01-21T21:31:13.723Z,27.97
2019-01-21T21:33:14.565Z,26.57
2019-01-21T21:35:15.431Z,27.77
2019-01-21T21:37:16.292Z,27.77
2019-01-21T21:39:17.226Z,26.30
2019-01-21T21:41:18.087Z,27.77
2019-01-21T21:43:18.932Z,26.77
2019-01-21T21:45:19.783Z,26.53
2019-01-21T21:47:20.874Z,27.73
2019-01-21T21:49:21.725Z,27.97
2019-01-21T21:51:22.653Z,27.47
2019-01-21T21:53:23.505Z,28.40
2019-01-21T21:55:24.480Z,29.70
2019-01-21T21:57:25.345Z,30.53
2019-01-21T21:59:26.277Z,30.83
2019-01-21T22:01:27.195Z,30.93
2019-01-21T22:03:28.160Z,26.77
2019-01-21T22:05:29.076Z,29.67
2019-01-21T22:07:30.003Z,28.50
2019-01-21T22:09:31.164Z,25.90
2019-01-21T22:11:32.078Z,26.83
2019-01-21T22:13:33.133Z,27.50
2019-01-21T22:15:34.186Z,28.43
2019-01-21T22:17:35.047Z,29.07
2019-01-21T22:19:35.891Z,27.73
2019-01-21T22:21:36.748Z,28.67
2019-01-21T22:23:37.692Z,28.50
2019-01-21T22:25:38.609Z,27.93
2019-01-21T22:27:39.466Z,27.60
2019-01-21T22:29:40.291Z,27.73
2019-01-21T22:31:41.821Z,28.37
2019-01-21T22:33:42.650Z,28.90
2019-01-21T22:35:43.492Z,27.97
2019-01-21T22:37:44.448Z,29.00
2019-01-21T22:39:45.269Z,27.13
2019-01-21T22:41:46.100Z,26.67
2019-01-21T22:43:46.971Z,27.87
2019-01-21T22:45:48.140Z,28.17
2019-01-21T22:47:48.999Z,27.50
2019-01-21T22:49:51.484Z,28.40
2019-01-21T22:51:52.893Z,28.33
2019-01-21T22:53:54.164Z,28.90
2019-01-21T22:55:55.859Z,28.00
2019-01-21T22:57:56.689Z,28.67
2019-01-21T22:59:58.184Z,27.73
2019-01-21T23:01:59.016Z,27.43
2019-01-21T23:03:59.839Z,26.80
2019-01-21T23:06:00.689Z,27.10
2019-01-21T23:08:01.543Z,27.27
2019-01-21T23:10:02.398Z,26.60
2019-01-21T23:12:03.229Z,27.17
2019-01-21T23:14:04.061Z,26.27
2019-01-21T23:16:04.908Z,27.20
2019-01-21T23:18:06.808Z,26.70
2019-01-21T23:20:07.644Z,28.50
2019-01-21T23:22:08.473Z,27.83
2019-01-21T23:24:09.327Z,28.17
2019-01-21T23:26:10.173Z,28.00
2019-01-21T23:28:11.016Z,27.10
2019-01-21T23:30:12.199Z,28.17
2019-01-21T23:32:13.049Z,27.60
2019-01-21T23:34:13.896Z,27.13
2019-01-21T23:36:15.155Z,28.33
2019-01-21T23:38:16.256Z,26.97
2019-01-21T23:40:17.409Z,27.97
2019-01-21T23:42:18.257Z,27.20
2019-01-21T23:44:19.104Z,27.87
2019-01-21T23:46:19.953Z,26.87
2019-01-21T23:48:21.140Z,27.30
2019-01-21T23:50:21.979Z,27.40
2019-01-21T23:52:23.149Z,27.47
2019-01-21T23:54:24.254Z,28.20
2019-01-21T23:56:25.077Z,27.23
2019-01-21T23:58:25.928Z,27.73
